Time;durP1;ratioP1;P1;durP2;ratioP2;P2;SDS_P1;SDS_P2;PMS_P1;PMS_P2;Temp;Humidity;BMP_temperature;BMP_pressure;BME280_temperature;BME280_humidity;BME280_pressure;Samples;Min_cycle;Max_cycle;Signal;HPM_P1;HPM_P2
2024/01/24 00:02:44;;;;;;;5.35;0.80;;;;;;;10.26;76.50;100834.44;10348816;28;20046;-61
2024/01/24 00:07:47;;;;;;;9.60;1.15;;;;;;;10.39;76.55;100822.44;10367433;28;20050;-60
2024/01/24 00:12:49;;;;;;;6.43;1.45;;;;;;;10.40;76.15;100811.50;10353050;28;20404;-61
2024/01/24 00:17:50;;;;;;;6.70;1.10;;;;;;;10.44;76.46;100802.13;10347303;28;20113;-61
2024/01/24 00:22:52;;;;;;;4.53;0.60;;;;;;;10.53;76.02;100805.69;10349960;28;20069;-61
2024/01/24 00:27:53;;;;;;;12.75;0.70;;;;;;;10.56;76.31;100799.13;10345270;28;20050;-61
2024/01/24 00:32:55;;;;;;;6.50;0.57;;;;;;;10.60;76.43;100779.81;10346982;28;20046;-61
2024/01/24 00:37:56;;;;;;;8.57;0.98;;;;;;;10.64;75.86;100767.75;10346713;28;20050;-60
2024/01/24 00:42:58;;;;;;;3.53;1.15;;;;;;;10.67;75.91;100769.25;10346435;28;20053;-60
2024/01/24 00:48:00;;;;;;;6.70;0.88;;;;;;;10.73;76.13;100757.81;10345116;28;20046;-60
2024/01/24 00:53:06;;;;;;;3.50;0.55;;;;;;;10.74;76.05;100764.88;10362864;28;20105;-61
2024/01/24 00:58:07;;;;;;;3.85;0.50;;;;;;;10.73;76.23;100767.75;10347790;28;20659;-60
2024/01/24 01:03:09;;;;;;;4.03;0.50;;;;;;;10.79;76.17;100767.91;10350304;28;20054;-61
2024/01/24 01:08:10;;;;;;;7.30;1.33;;;;;;;10.84;76.03;100743.19;10344359;28;20460;-61
2024/01/24 01:13:12;;;;;;;2.15;0.75;;;;;;;10.91;76.01;100744.22;10353836;28;20824;-61
2024/01/24 01:18:13;;;;;;;3.53;0.43;;;;;;;10.95;75.74;100750.09;10347099;28;20489;-61
2024/01/24 01:23:15;;;;;;;6.78;0.40;;;;;;;11.06;75.72;100752.47;10350087;28;20137;-61
2024/01/24 01:28:16;;;;;;;6.38;0.93;;;;;;;11.14;75.13;100746.22;10356912;28;20049;-61
2024/01/24 01:33:17;;;;;;;1.38;0.30;;;;;;;11.19;75.53;100746.53;10353474;28;20045;-61
2024/01/24 01:38:19;;;;;;;4.93;0.30;;;;;;;11.24;75.04;100746.88;10352777;28;20050;-61
2024/01/24 01:43:20;;;;;;;3.50;0.55;;;;;;;11.29;75.11;100756.13;10356853;28;20128;-61
2024/01/24 01:48:22;;;;;;;4.18;1.20;;;;;;;11.33;74.90;100727.00;10355036;28;20046;-61
2024/01/24 01:53:24;;;;;;;3.17;0.35;;;;;;;11.36;74.92;100709.69;10348846;28;20049;-61
2024/01/24 01:58:25;;;;;;;4.18;0.20;;;;;;;11.45;75.12;100714.03;10358576;28;20042;-61
2024/01/24 02:03:27;;;;;;;2.92;0.30;;;;;;;11.51;75.19;100716.00;10346968;28;20700;-61
2024/01/24 02:08:31;;;;;;;2.92;0.20;;;;;;;11.51;75.02;100699.88;10350311;28;20042;-61
2024/01/24 02:13:33;;;;;;;1.27;0.20;;;;;;;11.57;74.89;100711.78;10348629;28;20146;-61
2024/01/24 02:18:34;;;;;;;2.92;0.20;;;;;;;11.61;75.03;100705.03;10357241;28;20050;-60
2024/01/24 02:23:38;;;;;;;2.30;0.20;;;;;;;11.68;74.67;100676.41;10363296;28;20137;-61
2024/01/24 02:28:39;;;;;;;4.20;0.40;;;;;;;11.69;74.63;100684.34;10356816;28;20399;-60
2024/01/24 02:33:41;;;;;;;2.00;0.30;;;;;;;11.69;75.07;100683.50;10344174;28;20049;-60
2024/01/24 02:38:42;;;;;;;3.72;0.20;;;;;;;11.73;74.97;100662.41;10351989;28;20054;-60
2024/01/24 02:43:44;;;;;;;0.63;0.13;;;;;;;11.79;74.60;100650.94;10355660;28;20651;-60
2024/01/24 02:48:45;;;;;;;0.20;0.00;;;;;;;11.79;74.85;100677.88;10352058;28;20061;-60
2024/01/24 02:53:46;;;;;;;0.35;0.10;;;;;;;11.84;74.39;100689.81;10348977;28;20324;-61
2024/01/24 02:58:48;;;;;;;0.32;0.10;;;;;;;11.90;74.17;100681.03;10358136;28;20048;-60
2024/01/24 03:03:52;;;;;;;1.92;0.20;;;;;;;11.92;74.61;100683.56;10359508;28;20056;-61
2024/01/24 03:08:56;;;;;;;0.40;0.10;;;;;;;11.97;74.43;100672.28;10347630;28;20062;-60
2024/01/24 03:13:57;;;;;;;3.03;0.10;;;;;;;12.05;74.41;100669.53;10351301;28;20042;-61
2024/01/24 03:18:59;;;;;;;0.20;0.10;;;;;;;11.99;74.48;100667.56;10350649;28;20054;-60
2024/01/24 03:24:01;;;;;;;1.25;0.10;;;;;;;11.99;74.70;100660.31;10352506;28;20473;-61
2024/01/24 03:29:02;;;;;;;1.25;0.08;;;;;;;11.92;74.58;100645.84;10352664;28;20038;-61
2024/01/24 03:34:03;;;;;;;0.38;0.10;;;;;;;11.83;74.85;100619.97;10349408;28;20050;-61
2024/01/24 03:39:05;;;;;;;0.28;0.00;;;;;;;11.87;75.00;100600.56;10350326;28;20042;-60
2024/01/24 03:44:08;;;;;;;0.60;0.10;;;;;;;11.90;75.04;100588.63;10355382;28;20166;-60
2024/01/24 03:49:10;;;;;;;0.60;0.30;;;;;;;11.89;75.22;100587.78;10347747;28;20473;-60
2024/01/24 03:54:11;;;;;;;0.45;0.10;;;;;;;11.89;75.31;100595.88;10347809;28;20049;-61
2024/01/24 03:59:13;;;;;;;1.50;0.10;;;;;;;11.91;75.04;100601.09;10349725;28;20042;-61
2024/01/24 04:04:15;;;;;;;1.88;0.20;;;;;;;11.96;75.48;100569.03;10355227;28;20045;-61
2024/01/24 04:09:17;;;;;;;0.43;0.10;;;;;;;12.00;75.25;100553.38;10349551;28;20069;-61
2024/01/24 04:14:18;;;;;;;0.30;0.10;;;;;;;12.05;75.14;100565.28;10347787;28;20061;-61
2024/01/24 04:19:23;;;;;;;1.58;0.10;;;;;;;12.08;75.01;100538.00;10341082;28;20064;-61
2024/01/24 04:24:25;;;;;;;0.77;0.08;;;;;;;12.11;75.29;100550.25;10361331;28;20773;-61
2024/01/24 04:29:27;;;;;;;0.30;0.17;;;;;;;12.11;75.21;100544.88;10346333;28;20127;-61
2024/01/24 04:34:28;;;;;;;4.00;0.13;;;;;;;12.13;75.31;100544.69;10348994;28;20046;-61
2024/01/24 04:39:30;;;;;;;0.08;0.00;;;;;;;12.12;75.59;100527.66;10346740;28;20065;-61
2024/01/24 04:44:32;;;;;;;0.35;0.10;;;;;;;12.14;75.76;100541.78;10351017;28;20130;-60
2024/01/24 04:49:33;;;;;;;0.10;0.00;;;;;;;12.15;75.31;100546.16;10351573;28;20038;-61
2024/01/24 04:54:46;;;;;;;1.25;0.10;;;;;;;12.13;75.99;100537.44;10348156;28;20124;-60
2024/01/24 04:59:47;;;;;;;0.05;0.00;;;;;;;12.06;75.89;100521.13;10348574;28;20042;-61
2024/01/24 05:04:56;;;;;;;0.20;0.10;;;;;;;12.04;75.87;100504.31;10361191;28;20042;-61
2024/01/24 05:09:58;;;;;;;0.73;0.20;;;;;;;11.99;76.72;100517.50;10367550;28;20064;-61
2024/01/24 05:15:00;;;;;;;1.27;0.13;;;;;;;12.09;76.65;100523.47;10357038;28;20041;-61
2024/01/24 05:20:01;;;;;;;0.43;0.10;;;;;;;12.08;76.63;100512.88;10353791;28;20048;-60
2024/01/24 05:25:04;;;;;;;3.72;0.10;;;;;;;12.05;77.13;100492.53;10360628;28;20084;-61
2024/01/24 05:30:07;;;;;;;0.20;0.10;;;;;;;12.07;76.96;100506.66;10364980;28;20398;-61
2024/01/24 05:35:25;;;;;;;0.25;0.10;;;;;;;12.09;76.97;100480.38;10359370;28;20057;-60
2024/01/24 05:40:27;;;;;;;1.23;0.10;;;;;;;12.10;77.20;100473.97;10354634;28;20622;-61
2024/01/24 05:45:28;;;;;;;0.25;0.10;;;;;;;12.16;77.61;100472.38;10354124;28;20080;-60
2024/01/24 05:50:30;;;;;;;0.93;0.10;;;;;;;12.19;77.40;100468.50;10349828;28;20507;-60
2024/01/24 05:55:31;;;;;;;0.57;0.30;;;;;;;12.21;76.94;100444.91;10353589;28;20042;-60
2024/01/24 06:00:33;;;;;;;0.17;0.10;;;;;;;12.21;77.36;100461.06;10356168;28;20045;-60
2024/01/24 06:05:34;;;;;;;0.10;0.00;;;;;;;12.33;77.26;100466.84;10352022;28;20575;-60
2024/01/24 06:10:37;;;;;;;3.42;0.10;;;;;;;12.42;77.05;100474.66;10352276;28;20792;-61
2024/01/24 06:15:38;;;;;;;1.23;0.10;;;;;;;12.44;77.33;100467.22;10353139;28;20038;-60
2024/01/24 06:20:40;;;;;;;1.75;0.30;;;;;;;12.41;77.78;100472.97;10352493;28;20432;-61
2024/01/24 06:25:42;;;;;;;0.57;0.10;;;;;;;12.46;77.52;100486.75;10355901;28;20046;-61
2024/01/24 06:30:44;;;;;;;0.30;0.10;;;;;;;12.50;77.61;100492.59;10363681;28;20369;-60
2024/01/24 06:35:47;;;;;;;0.73;0.10;;;;;;;12.47;78.01;100488.41;10345761;28;20096;-60
2024/01/24 06:40:49;;;;;;;0.45;0.10;;;;;;;12.56;77.92;100469.44;10351814;28;20523;-60
2024/01/24 06:45:51;;;;;;;0.32;0.10;;;;;;;12.62;78.30;100507.31;10350375;28;20057;-66
2024/01/24 06:50:54;;;;;;;1.50;0.10;;;;;;;12.68;77.97;100535.41;10357227;28;20096;-66
2024/01/24 06:55:56;;;;;;;0.00;0.00;;;;;;;12.78;77.84;100545.91;10346991;28;20047;-60
2024/01/24 07:00:57;;;;;;;0.10;0.00;;;;;;;12.86;77.51;100514.25;10351756;28;20129;-60
2024/01/24 07:06:04;;;;;;;0.50;0.00;;;;;;;12.87;77.76;100542.06;10343692;28;20111;-60
2024/01/24 07:11:10;;;;;;;0.00;0.00;;;;;;;12.91;77.87;100535.28;10319066;28;20100;-60
2024/01/24 07:16:14;;;;;;;0.50;0.00;;;;;;;12.95;78.10;100560.88;10359714;28;20053;-60
2024/01/24 07:21:15;;;;;;;0.10;0.00;;;;;;;13.04;77.99;100559.75;10342592;28;20434;-60
2024/01/24 07:26:16;;;;;;;0.10;0.00;;;;;;;12.90;78.72;100585.72;10344904;28;20043;-60
2024/01/24 07:31:18;;;;;;;1.20;0.10;;;;;;;12.76;79.12;100583.84;10349791;28;20056;-61
2024/01/24 07:36:21;;;;;;;1.55;0.00;;;;;;;12.67;79.51;100560.69;10366484;28;20056;-74
2024/01/24 07:41:23;;;;;;;0.08;0.05;;;;;;;12.66;79.80;100561.72;10355812;28;20049;-74
2024/01/24 07:46:25;;;;;;;0.10;0.00;;;;;;;12.65;79.91;100578.91;10355521;28;20046;-77
2024/01/24 07:51:27;;;;;;;0.20;0.10;;;;;;;12.62;80.28;100606.25;10352495;28;20436;-77
2024/01/24 07:56:28;;;;;;;1.50;0.00;;;;;;;12.56;80.94;100598.88;10348633;28;20052;-75
2024/01/24 08:01:30;;;;;;;0.43;0.00;;;;;;;12.53;81.29;100605.47;10356736;28;20575;-78
2024/01/24 08:06:33;;;;;;;0.00;0.00;;;;;;;12.42;80.74;100632.88;10352808;28;20049;-76
2024/01/24 08:11:35;;;;;;;0.10;0.00;;;;;;;12.41;77.61;100598.84;10348254;28;20049;-77
2024/01/24 08:16:36;;;;;;;1.13;0.10;;;;;;;12.53;74.43;100621.66;10353071;28;20049;-76
2024/01/24 08:21:38;;;;;;;2.10;0.10;;;;;;;12.68;72.70;100636.03;10352376;28;20826;-77
2024/01/24 08:26:39;;;;;;;2.40;0.10;;;;;;;12.93;71.19;100645.72;10347516;28;20104;-76
2024/01/24 08:31:41;;;;;;;1.27;0.00;;;;;;;13.12;69.15;100647.91;10356380;28;20069;-76
2024/01/24 08:36:43;;;;;;;1.08;0.10;;;;;;;13.33;69.11;100635.53;10354387;28;20404;-76
2024/01/24 08:41:45;;;;;;;1.55;0.10;;;;;;;13.56;68.66;100673.25;10351542;28;20429;-76
2024/01/24 08:46:48;;;;;;;2.50;0.10;;;;;;;13.73;67.91;100715.25;10350822;28;20053;-74
2024/01/24 08:51:50;;;;;;;1.58;0.03;;;;;;;13.93;67.10;100701.16;10345907;28;20496;-72
2024/01/24 08:56:52;;;;;;;2.13;0.00;;;;;;;14.02;66.51;100690.03;10351703;28;20076;-73
2024/01/24 09:01:55;;;;;;;0.43;0.00;;;;;;;14.15;66.31;100705.56;10344872;28;20050;-74
2024/01/24 09:06:57;;;;;;;1.42;0.10;;;;;;;14.23;65.90;100726.25;10350298;28;20049;-73
2024/01/24 09:11:59;;;;;;;1.23;0.10;;;;;;;14.26;65.49;100712.34;10354535;28;20065;-77
2024/01/24 09:17:03;;;;;;;3.13;0.10;;;;;;;14.30;65.08;100740.69;10348503;28;20054;-78
2024/01/24 09:22:05;;;;;;;1.90;0.20;;;;;;;14.29;63.30;100750.63;10357804;28;20489;-73
2024/01/24 09:27:07;;;;;;;2.40;0.25;;;;;;;14.28;61.12;100784.13;10350047;28;20421;-76
2024/01/24 09:32:08;;;;;;;1.65;0.70;;;;;;;14.35;57.68;100775.25;10351302;28;20050;-76
2024/01/24 09:37:11;;;;;;;5.63;0.65;;;;;;;14.44;55.94;100787.66;10350718;28;20085;-78
2024/01/24 09:42:20;;;;;;;9.75;0.60;;;;;;;14.53;55.39;100818.13;10359352;28;20525;-75
2024/01/24 09:47:23;;;;;;;8.32;0.50;;;;;;;14.62;54.55;100811.59;10372388;28;20057;-77
2024/01/24 09:52:26;;;;;;;8.15;1.33;;;;;;;14.71;54.01;100839.38;10356852;28;20129;-75
2024/01/24 09:57:28;;;;;;;11.52;0.63;;;;;;;14.69;53.09;100834.16;10356116;28;20750;-78
2024/01/24 10:02:30;;;;;;;8.95;1.05;;;;;;;14.74;52.55;100823.59;10358588;28;20045;-76
2024/01/24 10:07:33;;;;;;;14.02;1.08;;;;;;;14.79;53.38;100828.44;10350828;28;20148;-76
2024/01/24 10:12:35;;;;;;;8.00;1.23;;;;;;;14.75;52.70;100800.06;10355408;28;20054;-78
2024/01/24 10:17:42;;;;;;;11.80;1.08;;;;;;;14.77;52.13;100836.75;10361277;28;20104;-78
2024/01/24 10:22:45;;;;;;;6.20;0.55;;;;;;;14.76;52.78;100816.13;10364420;28;20073;-75
2024/01/24 10:27:47;;;;;;;8.98;1.02;;;;;;;14.80;52.52;100812.00;10369451;28;20164;-76
2024/01/24 10:32:50;;;;;;;10.25;1.00;;;;;;;14.92;52.65;100822.31;10348838;28;20061;-76
2024/01/24 10:37:53;;;;;;;11.80;1.30;;;;;;;15.03;52.80;100838.91;10361258;28;20042;-76
2024/01/24 10:43:02;;;;;;;4.28;0.90;;;;;;;15.07;52.17;100861.00;10354797;28;20060;-75
2024/01/24 10:48:05;;;;;;;8.95;1.23;;;;;;;15.01;50.97;100867.19;10358906;28;20081;-76
2024/01/24 10:53:09;;;;;;;8.88;0.88;;;;;;;15.01;51.58;100843.66;10363694;28;20057;-76
2024/01/24 10:58:11;;;;;;;9.05;1.10;;;;;;;15.02;51.34;100858.03;10346204;28;20034;-73
2024/01/24 11:03:13;;;;;;;7.88;0.70;;;;;;;14.99;51.23;100861.16;10362850;28;20050;-76
2024/01/24 11:08:29;;;;;;;10.93;1.65;;;;;;;14.95;50.83;100862.53;10359544;28;20054;-76
2024/01/24 11:13:44;;;;;;;16.20;1.63;;;;;;;14.92;50.26;100865.63;10358547;28;20042;-76
2024/01/24 11:18:46;;;;;;;9.25;0.98;;;;;;;14.97;50.58;100865.88;10366504;28;20077;-76
2024/01/24 11:23:49;;;;;;;13.73;1.00;;;;;;;15.04;50.38;100854.09;10360393;28;20040;-73
2024/01/24 11:29:04;;;;;;;15.63;1.55;;;;;;;15.01;49.88;100864.50;10361858;28;20049;-75
2024/01/24 11:34:13;;;;;;;13.88;1.98;;;;;;;15.03;50.04;100868.69;10363286;28;20432;-76
2024/01/24 11:39:34;;;;;;;10.07;0.70;;;;;;;15.15;50.27;100854.63;10352483;28;20172;-76
2024/01/24 11:44:36;;;;;;;13.45;1.17;;;;;;;15.12;51.12;100861.25;10352530;28;20074;-76
2024/01/24 11:49:38;;;;;;;8.45;2.17;;;;;;;15.06;50.41;100894.53;10356680;28;20037;-75
2024/01/24 11:54:53;;;;;;;14.55;1.33;;;;;;;15.00;50.17;100911.53;10346300;28;20045;-77
2024/01/24 11:59:55;;;;;;;16.05;1.58;;;;;;;14.97;49.34;100914.63;10356638;28;20057;-76
2024/01/24 12:04:57;;;;;;;13.27;1.20;;;;;;;14.96;48.61;100923.78;10348835;28;20099;-74
2024/01/24 12:09:59;;;;;;;9.95;0.90;;;;;;;14.89;48.32;100942.66;10355166;28;20046;-76
2024/01/24 12:15:01;;;;;;;7.97;1.30;;;;;;;14.93;48.24;100924.16;10362510;28;20047;-75
2024/01/24 12:20:04;;;;;;;11.13;0.95;;;;;;;14.88;47.93;100935.56;10341963;28;20038;-75
2024/01/24 12:25:08;;;;;;;13.40;1.55;;;;;;;14.95;48.00;100947.31;10345057;28;20375;-75
2024/01/24 12:30:11;;;;;;;9.00;1.27;;;;;;;14.84;47.11;100966.75;10361034;28;20072;-75
2024/01/24 12:35:16;;;;;;;10.43;1.38;;;;;;;15.01;46.95;100978.22;10348428;28;20050;-74
2024/01/24 12:40:18;;;;;;;9.65;1.02;;;;;;;14.91;46.01;100986.63;10345539;28;20057;-75
2024/01/24 12:45:23;;;;;;;10.60;1.88;;;;;;;14.91;46.10;100964.09;10375978;28;20046;-73
2024/01/24 12:50:25;;;;;;;7.88;1.25;;;;;;;15.00;45.84;100974.63;10398621;28;20046;-73
2024/01/24 12:55:27;;;;;;;10.30;1.23;;;;;;;15.13;45.93;100960.44;10387718;28;20050;-73
2024/01/24 13:00:28;;;;;;;13.25;1.70;;;;;;;15.30;45.57;100971.03;10384769;28;20137;-73
2024/01/24 13:05:31;;;;;;;9.10;1.33;;;;;;;15.21;44.88;100986.56;10399004;28;20034;-73
2024/01/24 13:10:47;;;;;;;9.32;1.15;;;;;;;15.13;45.40;100971.25;10396774;28;20069;-73
2024/01/24 13:15:53;;;;;;;11.30;1.55;;;;;;;15.14;45.18;100983.75;10382596;28;20038;-72
2024/01/24 13:20:55;;;;;;;12.00;1.10;;;;;;;15.19;45.01;100994.88;10365599;28;20053;-73
2024/01/24 13:25:57;;;;;;;12.68;1.30;;;;;;;15.30;44.81;101012.50;10377398;28;20057;-73
2024/01/24 13:30:59;;;;;;;4.97;1.52;;;;;;;15.41;45.07;101000.31;10362347;28;20050;-73
2024/01/24 13:36:02;;;;;;;16.73;2.03;;;;;;;15.34;44.91;101000.22;10380745;28;20073;-73
2024/01/24 13:41:03;;;;;;;11.05;1.30;;;;;;;15.26;45.11;101005.78;10358989;28;20049;-73
2024/01/24 13:46:06;;;;;;;16.92;2.25;;;;;;;15.25;45.12;101013.06;10360773;28;20052;-73
2024/01/24 13:51:08;;;;;;;13.77;1.50;;;;;;;15.19;44.41;101031.97;10369107;28;20046;-73
2024/01/24 13:56:10;;;;;;;14.68;1.33;;;;;;;15.11;44.49;101013.94;10359104;28;20416;-75
2024/01/24 14:01:11;;;;;;;15.52;1.77;;;;;;;15.17;44.65;101020.47;10357725;28;20043;-74
2024/01/24 14:06:13;;;;;;;10.70;1.40;;;;;;;15.17;45.01;101028.59;10367172;28;20053;-75
2024/01/24 14:11:15;;;;;;;17.15;1.20;;;;;;;14.96;44.17;101027.50;10357228;28;20050;-76
2024/01/24 14:16:17;;;;;;;11.90;1.63;;;;;;;15.02;44.51;101050.28;10375486;28;20088;-74
2024/01/24 14:21:18;;;;;;;11.85;1.13;;;;;;;14.96;44.52;101049.16;10364720;28;20050;-74
2024/01/24 14:26:21;;;;;;;15.25;1.13;;;;;;;14.98;44.85;101049.81;10362188;28;20485;-74
2024/01/24 14:31:24;;;;;;;12.88;1.63;;;;;;;14.93;44.82;101057.66;10358334;28;20038;-74
2024/01/24 14:36:32;;;;;;;16.73;1.40;;;;;;;14.89;45.11;101083.44;10367956;28;20065;-73
2024/01/24 14:41:33;;;;;;;11.98;1.88;;;;;;;14.83;45.33;101085.00;10339878;23;20084;-73
2024/01/24 14:46:35;;;;;;;13.95;1.33;;;;;;;14.77;45.29;101085.75;10337073;28;20045;-74
2024/01/24 14:51:36;;;;;;;15.73;1.90;;;;;;;14.84;45.56;101105.63;10329742;28;20051;-73
2024/01/24 14:56:38;;;;;;;14.02;2.47;;;;;;;14.91;45.52;101104.88;10341010;28;20043;-73
2024/01/24 15:01:40;;;;;;;10.85;1.35;;;;;;;14.81;45.73;101110.56;10344440;28;20053;-73
2024/01/24 15:06:42;;;;;;;11.77;0.90;;;;;;;14.86;45.92;101117.09;10315354;28;20493;-73
2024/01/24 15:11:44;;;;;;;13.13;1.50;;;;;;;14.70;45.97;101141.63;10301125;28;20054;-73
2024/01/24 15:16:45;;;;;;;13.23;1.00;;;;;;;14.61;45.83;101156.25;10301025;28;20050;-73
2024/01/24 15:21:47;;;;;;;20.23;1.45;;;;;;;14.55;46.17;101151.53;10297081;28;20498;-73
2024/01/24 15:26:48;;;;;;;11.60;1.65;;;;;;;14.40;46.25;101171.28;10301329;28;20126;-73
2024/01/24 15:31:51;;;;;;;22.67;2.13;;;;;;;14.33;46.47;101174.88;10311272;28;20046;-73
2024/01/24 15:36:52;;;;;;;12.88;1.15;;;;;;;14.26;46.94;101186.44;10300818;28;20584;-73
2024/01/24 15:41:59;;;;;;;14.98;1.70;;;;;;;14.20;47.21;101186.31;10279941;28;20055;-73
2024/01/24 15:47:03;;;;;;;17.50;3.05;;;;;;;14.17;47.34;101189.38;10263257;28;20569;-72
2024/01/24 15:52:04;;;;;;;16.65;1.27;;;;;;;14.05;47.80;101215.97;10281845;28;20101;-73
2024/01/24 15:57:06;;;;;;;15.00;1.80;;;;;;;14.07;47.51;101214.75;10269504;28;20042;-73
2024/01/24 16:02:08;;;;;;;12.18;2.10;;;;;;;13.97;48.04;101216.84;10265499;28;20074;-73
2024/01/24 16:07:09;;;;;;;13.63;1.20;;;;;;;14.06;48.08;101229.31;10273200;28;20051;-73
2024/01/24 16:12:11;;;;;;;11.93;1.95;;;;;;;14.01;48.14;101236.25;10272151;28;20057;-74
2024/01/24 16:17:13;;;;;;;10.48;1.45;;;;;;;13.95;48.52;101247.78;10282808;28;20341;-73
2024/01/24 16:22:16;;;;;;;15.82;2.22;;;;;;;13.89;48.40;101250.16;10268945;28;20464;-61
2024/01/24 16:27:22;;;;;;;13.45;1.92;;;;;;;13.88;48.67;101262.00;10259389;28;20047;-61
2024/01/24 16:32:23;;;;;;;14.90;2.40;;;;;;;13.82;48.68;101261.84;10265600;28;20418;-61
2024/01/24 16:37:25;;;;;;;15.50;1.65;;;;;;;13.78;48.77;101265.91;10269212;28;20046;-60
2024/01/24 16:42:29;;;;;;;17.10;1.00;;;;;;;13.74;48.92;101264.59;10268273;28;20375;-60
2024/01/24 16:47:31;;;;;;;10.25;1.30;;;;;;;13.75;48.89;101290.59;10267240;28;20046;-60
2024/01/24 16:52:32;;;;;;;17.48;1.65;;;;;;;13.64;48.89;101305.31;10269906;28;20125;-60
2024/01/24 16:57:35;;;;;;;16.35;1.35;;;;;;;13.57;48.84;101305.16;10267795;28;20505;-60
2024/01/24 17:02:36;;;;;;;13.07;1.73;;;;;;;13.56;48.95;101298.06;10272212;28;20047;-60
2024/01/24 17:07:47;;;;;;;10.13;2.42;;;;;;;13.51;48.97;101322.06;10275512;28;20043;-60
2024/01/24 17:12:49;;;;;;;13.13;2.08;;;;;;;13.56;48.95;101322.38;10271654;28;20043;-61
2024/01/24 17:17:51;;;;;;;18.83;1.52;;;;;;;13.47;48.96;101337.75;10272663;28;20043;-61
2024/01/24 17:22:53;;;;;;;9.70;1.45;;;;;;;13.44;49.04;101332.69;10266643;28;20043;-60
2024/01/24 17:27:55;;;;;;;14.00;2.33;;;;;;;13.40;49.22;101338.63;10270212;28;20453;-61
2024/01/24 17:32:58;;;;;;;22.52;1.52;;;;;;;13.39;49.43;101345.00;10273009;28;20046;-61
2024/01/24 17:37:59;;;;;;;12.63;2.63;;;;;;;13.37;49.07;101347.91;10273563;28;20109;-61
2024/01/24 17:43:01;;;;;;;15.65;2.15;;;;;;;13.34;49.53;101342.84;10278013;28;20405;-60
2024/01/24 17:48:03;;;;;;;11.98;1.80;;;;;;;13.33;49.75;101361.91;10274437;28;20053;-60
2024/01/24 17:53:06;;;;;;;18.45;2.20;;;;;;;13.18;49.69;101353.63;10278846;28;20136;-60
2024/01/24 17:58:08;;;;;;;13.88;2.13;;;;;;;13.13;49.99;101372.16;10268974;28;20087;-61
2024/01/24 18:03:09;;;;;;;16.40;1.75;;;;;;;13.09;50.03;101372.50;10268549;28;20057;-61
2024/01/24 18:08:11;;;;;;;19.65;1.92;;;;;;;13.08;50.00;101373.50;10272015;28;20047;-61
2024/01/24 18:13:13;;;;;;;15.02;1.80;;;;;;;13.05;50.21;101389.19;10278132;28;20049;-62
2024/01/24 18:18:16;;;;;;;14.23;1.65;;;;;;;13.05;50.01;101395.44;10268321;28;20050;-61
2024/01/24 18:23:18;;;;;;;19.23;2.53;;;;;;;13.04;50.20;101385.66;10273818;28;20057;-61
2024/01/24 18:28:19;;;;;;;18.63;2.47;;;;;;;12.98;50.60;101390.88;10269695;28;20050;-62
2024/01/24 18:33:21;;;;;;;17.88;2.30;;;;;;;12.90;50.71;101392.53;10276730;28;20457;-61
2024/01/24 18:38:23;;;;;;;15.00;1.90;;;;;;;12.92;50.61;101402.34;10269542;28;20511;-60
2024/01/24 18:43:24;;;;;;;14.68;2.00;;;;;;;12.90;50.68;101395.25;10274406;28;20058;-60
2024/01/24 18:48:26;;;;;;;17.85;3.30;;;;;;;12.85;50.80;101408.38;10267463;28;20050;-61
2024/01/24 18:53:27;;;;;;;11.93;1.77;;;;;;;12.76;51.12;101420.19;10270068;28;20438;-60
2024/01/24 18:58:29;;;;;;;12.02;1.52;;;;;;;12.75;51.32;101437.34;10274944;28;20054;-60
2024/01/24 19:03:31;;;;;;;29.88;2.28;;;;;;;12.66;51.43;101443.75;10267430;28;20074;-60
2024/01/24 19:08:36;;;;;;;11.40;2.03;;;;;;;12.69;51.30;101449.63;10247870;28;20061;-60
2024/01/24 19:13:39;;;;;;;18.48;2.20;;;;;;;12.66;51.32;101447.28;10269446;28;20137;-60
2024/01/24 19:18:42;;;;;;;15.38;1.63;;;;;;;12.61;51.83;101451.47;10261253;28;20043;-60
2024/01/24 19:23:44;;;;;;;10.85;1.27;;;;;;;12.54;51.76;101437.81;10275716;28;20043;-60
2024/01/24 19:28:46;;;;;;;17.58;2.15;;;;;;;12.54;51.70;101436.94;10261607;28;20501;-60
2024/01/24 19:33:50;;;;;;;14.57;1.27;;;;;;;12.52;52.00;101433.56;10268889;28;20132;-61
2024/01/24 19:38:53;;;;;;;11.45;1.55;;;;;;;12.47;52.19;101436.75;10276321;28;20051;-60
2024/01/24 19:43:55;;;;;;;17.27;1.67;;;;;;;12.46;52.12;101433.22;10270120;28;20053;-61
2024/01/24 19:48:56;;;;;;;23.67;1.80;;;;;;;12.44;52.37;101419.03;10266227;28;20047;-62
2024/01/24 19:53:59;;;;;;;18.52;3.45;;;;;;;12.41;52.66;101413.97;10255208;28;20051;-61
2024/01/24 19:59:00;;;;;;;14.80;2.38;;;;;;;12.40;52.39;101408.72;10265305;28;20113;-61
2024/01/24 20:04:05;;;;;;;13.90;2.53;;;;;;;12.44;52.65;101397.47;10229275;28;20047;-61
2024/01/24 20:09:08;;;;;;;16.20;1.75;;;;;;;12.44;52.81;101402.00;10261368;28;20047;-62
2024/01/24 20:14:09;;;;;;;10.85;2.10;;;;;;;12.31;52.98;101399.75;10276041;28;20039;-62
2024/01/24 20:19:13;;;;;;;20.27;2.88;;;;;;;12.26;53.36;101407.47;10269109;28;20043;-61
2024/01/24 20:24:14;;;;;;;13.82;1.45;;;;;;;12.24;53.54;101404.09;10229085;28;20059;-62
2024/01/24 20:29:19;;;;;;;16.45;2.78;;;;;;;12.24;53.40;101413.06;10278489;28;20134;-61
2024/01/24 20:34:21;;;;;;;21.48;3.03;;;;;;;12.19;53.87;101414.53;10270318;28;20083;-62
2024/01/24 20:39:25;;;;;;;16.10;2.03;;;;;;;12.15;53.94;101418.56;10266078;28;20514;-62
2024/01/24 20:44:28;;;;;;;21.65;2.97;;;;;;;12.04;54.54;101407.03;10256781;28;20043;-61
2024/01/24 20:49:34;;;;;;;14.43;1.80;;;;;;;12.00;54.42;101421.00;10267064;28;20047;-61
2024/01/24 20:54:36;;;;;;;20.02;2.40;;;;;;;11.92;54.45;101385.91;10263383;28;20042;-60
2024/01/24 20:59:38;;;;;;;16.98;2.28;;;;;;;11.77;55.06;101401.75;10267906;28;20042;-61
2024/01/24 21:04:40;;;;;;;17.65;1.92;;;;;;;11.59;55.49;101415.28;10261942;28;20555;-61
2024/01/24 21:09:42;;;;;;;23.52;2.45;;;;;;;11.45;55.40;101419.38;10266827;28;20035;-59
2024/01/24 21:14:43;;;;;;;11.38;1.98;;;;;;;11.35;55.52;101429.38;10264998;28;20055;-60
2024/01/24 21:19:45;;;;;;;15.60;1.73;;;;;;;11.25;55.88;101426.75;10264776;28;20057;-60
2024/01/24 21:24:46;;;;;;;18.50;1.90;;;;;;;11.11;56.55;101430.84;10263121;28;20130;-60
2024/01/24 21:29:48;;;;;;;19.90;1.27;;;;;;;11.04;56.41;101419.00;10272814;28;20051;-60
2024/01/24 21:34:49;;;;;;;16.20;2.13;;;;;;;11.02;56.74;101429.03;10273126;28;20059;-60
2024/01/24 21:39:51;;;;;;;23.42;2.10;;;;;;;10.97;56.70;101442.13;10271028;28;20055;-60
2024/01/24 21:44:53;;;;;;;16.73;1.90;;;;;;;10.93;56.94;101449.66;10271803;28;20100;-61
2024/01/24 21:49:55;;;;;;;17.70;1.77;;;;;;;10.90;57.43;101442.75;10276138;28;20054;-60
2024/01/24 21:54:56;;;;;;;16.10;2.25;;;;;;;10.92;57.38;101447.97;10271751;28;20078;-60
2024/01/24 21:59:58;;;;;;;17.52;1.60;;;;;;;10.99;57.23;101442.81;10268729;28;20115;-60
2024/01/24 22:05:00;;;;;;;12.38;1.98;;;;;;;11.02;57.09;101445.19;10273006;28;20055;-60
2024/01/24 22:10:01;;;;;;;14.48;1.73;;;;;;;11.04;57.08;101435.16;10279052;28;20047;-60
2024/01/24 22:15:09;;;;;;;16.15;2.08;;;;;;;10.97;57.23;101434.91;10277009;28;20549;-60
2024/01/24 22:20:11;;;;;;;14.93;2.03;;;;;;;10.93;57.46;101440.75;10274458;28;20382;-60
2024/01/24 22:25:12;;;;;;;21.40;1.63;;;;;;;10.99;57.36;101462.50;10277694;28;20046;-60
2024/01/24 22:30:14;;;;;;;18.20;1.08;;;;;;;11.04;57.26;101464.75;10277451;28;20183;-60
2024/01/24 22:35:16;;;;;;;16.92;3.42;;;;;;;11.05;57.42;101455.66;10275078;28;20410;-60
2024/01/24 22:40:17;;;;;;;9.75;1.30;;;;;;;11.05;57.50;101461.03;10264091;28;20051;-61
2024/01/24 22:45:19;;;;;;;19.48;1.60;;;;;;;11.07;57.48;101449.13;10264816;28;20092;-60
2024/01/24 22:50:21;;;;;;;17.90;2.85;;;;;;;11.04;57.64;101462.91;10266743;28;20098;-60
2024/01/24 22:55:23;;;;;;;14.57;2.13;;;;;;;11.04;57.75;101467.44;10268608;28;20539;-60
2024/01/24 23:00:26;;;;;;;19.92;1.75;;;;;;;10.98;58.20;101459.94;10267397;28;20055;-60
2024/01/24 23:05:28;;;;;;;32.53;3.40;;;;;;;10.83;58.18;101465.00;10267561;28;20059;-61